createdAt,value
2022-11-07T00:00:47.473Z,9.47
2022-11-07T00:03:18.354Z,8.23
2022-11-07T00:05:47.005Z,13.73
2022-11-07T00:08:14.958Z,7.87
2022-11-07T00:10:42.910Z,10.50
2022-11-07T00:13:11.152Z,10.40
2022-11-07T00:15:39.112Z,6.97
2022-11-07T00:18:08.407Z,8.83
2022-11-07T00:20:36.309Z,11.13
2022-11-07T00:23:04.182Z,10.17
2022-11-07T00:25:32.084Z,11.93
2022-11-07T00:27:59.961Z,10.50
2022-11-07T00:30:27.894Z,17.03
2022-11-07T00:33:00.038Z,10.17
2022-11-07T00:35:29.936Z,7.07
2022-11-07T00:37:58.074Z,10.17
2022-11-07T00:40:25.996Z,8.33
2022-11-07T00:42:53.885Z,10.10
2022-11-07T00:45:21.836Z,13.10
2022-11-07T00:47:52.023Z,12.20
2022-11-07T00:50:20.101Z,10.50
2022-11-07T00:52:49.447Z,11.37
2022-11-07T00:55:17.406Z,14.70
2022-11-07T00:57:45.324Z,24.03
2022-11-07T01:00:14.811Z,23.30
2022-11-07T01:02:42.823Z,11.53
2022-11-07T01:05:12.921Z,15.20
2022-11-07T01:07:42.121Z,13.70
2022-11-07T01:10:11.424Z,19.40
2022-11-07T01:12:39.304Z,12.60
2022-11-07T01:15:07.894Z,12.07
2022-11-07T01:17:35.776Z,13.77
2022-11-07T01:20:03.698Z,9.47
2022-11-07T01:22:31.605Z,14.57
2022-11-07T01:24:59.499Z,9.53
2022-11-07T01:27:28.757Z,8.60
2022-11-07T01:29:56.702Z,14.77
2022-11-07T01:32:24.585Z,11.53
2022-11-07T01:34:52.561Z,9.17
2022-11-07T01:37:20.496Z,13.60
2022-11-07T01:39:48.406Z,12.40
2022-11-07T01:42:16.316Z,11.27
2022-11-07T01:44:54.265Z,11.87
2022-11-07T01:47:23.014Z,12.57
2022-11-07T01:49:51.524Z,8.47
2022-11-07T01:52:21.456Z,8.13
2022-11-07T01:54:50.887Z,9.50
2022-11-07T01:57:21.926Z,9.80
2022-11-07T01:59:50.372Z,8.27
2022-11-07T02:02:19.929Z,10.00
2022-11-07T02:04:48.252Z,7.47
2022-11-07T02:07:19.567Z,7.47
2022-11-07T02:09:48.117Z,6.60
2022-11-07T02:12:17.427Z,8.03
2022-11-07T02:14:45.406Z,5.17
2022-11-07T02:17:13.968Z,4.30
2022-11-07T02:19:44.828Z,3.97
2022-11-07T02:22:17.838Z,4.63
2022-11-07T02:24:48.843Z,3.63
2022-11-07T02:27:19.685Z,3.30
2022-11-07T02:29:51.485Z,3.20
2022-11-07T02:32:19.386Z,3.43
2022-11-07T02:34:55.736Z,5.00
2022-11-07T02:37:26.551Z,3.60
2022-11-07T02:39:55.873Z,4.00
2022-11-07T02:42:24.670Z,3.87
2022-11-07T02:44:53.765Z,4.17
2022-11-07T02:47:21.641Z,3.17
2022-11-07T02:49:49.540Z,4.23
2022-11-07T02:52:17.445Z,3.67
2022-11-07T02:54:45.332Z,4.57
2022-11-07T02:57:14.620Z,3.13
2022-11-07T02:59:42.509Z,4.33
2022-11-07T03:02:11.443Z,3.30
2022-11-07T03:04:39.557Z,3.70
2022-11-07T03:07:07.395Z,4.90
2022-11-07T03:09:35.286Z,9.20
2022-11-07T03:12:03.160Z,6.77
2022-11-07T03:14:32.581Z,3.93
2022-11-07T03:17:00.491Z,3.77
2022-11-07T03:19:28.427Z,4.00
2022-11-07T03:21:56.332Z,6.80
2022-11-07T03:24:24.258Z,3.67
2022-11-07T03:26:52.253Z,5.17
2022-11-07T03:29:20.123Z,3.33
2022-11-07T03:31:49.385Z,2.80
2022-11-07T03:34:17.272Z,3.60
2022-11-07T03:36:45.182Z,3.90
2022-11-07T03:39:13.077Z,4.37
2022-11-07T03:41:41.010Z,3.73
2022-11-07T03:44:09.128Z,3.50
2022-11-07T03:46:37.065Z,3.17
2022-11-07T03:49:06.354Z,4.40
2022-11-07T03:51:34.268Z,3.77
2022-11-07T03:54:02.172Z,4.37
2022-11-07T03:56:30.074Z,4.00
2022-11-07T03:58:58.000Z,3.53
2022-11-07T04:01:26.015Z,4.57
2022-11-07T04:03:56.056Z,8.50
2022-11-07T04:06:25.752Z,3.60
2022-11-07T04:08:53.913Z,3.43
2022-11-07T04:11:35.690Z,3.90
2022-11-07T04:14:21.065Z,3.83
2022-11-07T04:17:06.185Z,2.53
2022-11-07T04:19:34.092Z,4.10
2022-11-07T04:22:03.356Z,3.00
2022-11-07T04:24:31.258Z,2.90
2022-11-07T04:27:16.259Z,4.23
2022-11-07T04:29:44.170Z,3.30
2022-11-07T04:32:12.065Z,3.30
2022-11-07T04:34:39.982Z,2.90
2022-11-07T04:37:09.253Z,2.90
2022-11-07T04:39:37.133Z,2.60
2022-11-07T04:42:05.233Z,2.37
2022-11-07T04:44:33.318Z,2.37
2022-11-07T04:47:01.252Z,7.93
2022-11-07T04:49:29.123Z,2.30
2022-11-07T04:51:57.795Z,2.30
2022-11-07T04:54:27.195Z,6.20
2022-11-07T04:56:55.095Z,3.53
2022-11-07T04:59:22.963Z,2.80
2022-11-07T05:01:50.916Z,3.30
2022-11-07T05:04:18.843Z,2.30
2022-11-07T05:06:46.959Z,2.93
2022-11-07T05:09:16.877Z,4.50
2022-11-07T05:11:46.316Z,2.77
2022-11-07T05:14:14.367Z,2.77
2022-11-07T05:16:43.955Z,2.90
2022-11-07T05:19:14.085Z,2.80
2022-11-07T05:21:41.981Z,2.13
2022-11-07T05:24:08.988Z,5.87
2022-11-07T05:26:36.963Z,2.10
2022-11-07T05:29:06.700Z,2.13
2022-11-07T05:31:34.610Z,2.40
2022-11-07T05:34:02.531Z,2.80
2022-11-07T05:36:30.423Z,3.00
2022-11-07T05:38:58.400Z,2.33
2022-11-07T05:41:26.338Z,2.03
2022-11-07T05:43:54.316Z,4.37
2022-11-07T05:46:23.599Z,3.07
2022-11-07T05:48:55.377Z,4.23
2022-11-07T05:51:25.917Z,7.70
2022-11-07T05:53:53.823Z,2.33
2022-11-07T05:56:21.684Z,2.20
2022-11-07T05:58:49.588Z,1.67
2022-11-07T06:01:17.477Z,3.30
2022-11-07T06:03:46.744Z,2.43
2022-11-07T06:06:14.642Z,2.00
2022-11-07T06:08:42.628Z,1.90
2022-11-07T06:11:10.527Z,1.83
2022-11-07T06:13:38.406Z,26.07
2022-11-07T06:16:07.179Z,2.00
2022-11-07T06:18:41.344Z,1.90
2022-11-07T06:21:11.202Z,4.00
2022-11-07T06:23:39.124Z,2.40
2022-11-07T06:26:07.277Z,2.03
2022-11-07T06:28:35.568Z,1.90
2022-11-07T06:31:04.114Z,45.23
2022-11-07T06:33:32.133Z,34.40
2022-11-07T06:36:06.663Z,7.90
2022-11-07T06:38:36.248Z,2.90
2022-11-07T06:41:08.233Z,3.20
2022-11-07T06:43:36.158Z,2.30
2022-11-07T06:46:05.564Z,2.17
2022-11-07T06:48:33.539Z,2.37
2022-11-07T06:51:03.195Z,2.00
2022-11-07T06:53:32.758Z,2.90
2022-11-07T06:56:02.949Z,2.70
2022-11-07T06:58:30.961Z,4.33
2022-11-07T07:01:02.287Z,2.10
2022-11-07T07:03:30.290Z,2.33
2022-11-07T07:06:02.891Z,2.60
2022-11-07T07:08:31.428Z,2.63
2022-11-07T07:11:04.897Z,6.50
2022-11-07T07:13:33.174Z,2.60
2022-11-07T07:16:01.222Z,2.67
2022-11-07T07:18:29.808Z,3.30
2022-11-07T07:21:04.897Z,3.30
2022-11-07T07:23:33.199Z,2.53
2022-11-07T07:26:01.373Z,2.73
2022-11-07T07:28:30.801Z,2.20
2022-11-07T07:31:09.031Z,2.30
2022-11-07T07:33:37.017Z,2.43
2022-11-07T07:36:05.480Z,2.10
2022-11-07T07:38:33.478Z,3.50
2022-11-07T07:41:01.563Z,1.80
2022-11-07T07:43:31.327Z,5.37
2022-11-07T07:46:00.117Z,2.23
2022-11-07T07:48:28.087Z,1.90
2022-11-07T07:50:56.341Z,1.60
2022-11-07T07:53:24.531Z,3.10
2022-11-07T07:55:56.667Z,6.10
2022-11-07T07:58:24.651Z,2.10
2022-11-07T08:00:54.670Z,1.70
2022-11-07T08:03:22.608Z,2.60
2022-11-07T08:05:54.079Z,2.60
2022-11-07T08:08:22.340Z,1.50
2022-11-07T08:10:54.250Z,2.50
2022-11-07T08:13:23.508Z,1.97
2022-11-07T08:15:51.917Z,2.00
2022-11-07T08:18:22.765Z,2.00
2022-11-07T08:20:51.497Z,1.60
2022-11-07T08:23:20.093Z,1.37
2022-11-07T08:25:52.889Z,2.00
2022-11-07T08:28:21.662Z,2.43
2022-11-07T08:30:56.656Z,1.70
2022-11-07T08:33:26.400Z,1.67
2022-11-07T08:35:55.669Z,1.30
2022-11-07T08:38:24.057Z,2.50
2022-11-07T08:40:52.088Z,2.57
2022-11-07T08:43:20.322Z,2.70
2022-11-07T08:45:49.316Z,1.60
2022-11-07T08:48:18.258Z,2.17
2022-11-07T08:50:47.848Z,1.63
2022-11-07T08:53:15.833Z,1.47
2022-11-07T08:55:43.823Z,2.30
2022-11-07T08:58:11.765Z,1.80
2022-11-07T09:00:39.726Z,1.33
2022-11-07T09:03:38.699Z,2.13
2022-11-07T09:05:59.011Z,1.37
2022-11-07T09:08:26.981Z,2.60
2022-11-07T09:10:54.909Z,1.13
2022-11-07T09:13:22.882Z,1.53
2022-11-07T09:15:52.002Z,2.17
2022-11-07T09:18:20.267Z,2.07
2022-11-07T09:20:48.473Z,1.57
2022-11-07T09:23:17.978Z,1.30
2022-11-07T09:25:46.753Z,6.30
2022-11-07T09:28:15.226Z,2.70
2022-11-07T09:30:43.312Z,1.43
2022-11-07T09:33:11.310Z,1.67
2022-11-07T09:35:39.188Z,1.60
2022-11-07T09:38:07.100Z,1.87
2022-11-07T09:40:43.701Z,2.60
2022-11-07T09:43:34.480Z,1.50
2022-11-07T09:46:06.084Z,2.07
2022-11-07T09:48:39.990Z,5.07
2022-11-07T09:51:14.528Z,2.03
2022-11-07T09:53:44.196Z,2.20
2022-11-07T09:56:14.521Z,2.17
2022-11-07T09:58:43.691Z,1.47
2022-11-07T10:01:14.064Z,1.47
2022-11-07T10:03:49.212Z,2.00
2022-11-07T10:06:24.901Z,2.00
2022-11-07T10:08:56.538Z,1.17
2022-11-07T10:11:33.527Z,1.77
2022-11-07T10:14:13.570Z,1.60
2022-11-07T10:16:52.093Z,3.00
2022-11-07T10:19:26.866Z,2.00
2022-11-07T10:22:06.001Z,1.33
2022-11-07T10:24:42.857Z,2.60
2022-11-07T10:27:12.573Z,7.03
2022-11-07T10:29:45.138Z,2.67
2022-11-07T10:32:20.214Z,1.37
2022-11-07T10:34:54.208Z,1.53
2022-11-07T10:37:22.755Z,2.13
2022-11-07T10:39:50.619Z,1.60
2022-11-07T10:42:22.312Z,2.10
2022-11-07T10:44:50.387Z,1.43
2022-11-07T10:47:19.227Z,1.43
2022-11-07T10:50:00.634Z,1.57
2022-11-07T10:52:29.405Z,1.10
2022-11-07T10:55:08.382Z,2.93
2022-11-07T10:57:37.684Z,1.30
2022-11-07T11:00:22.981Z,3.37
2022-11-07T11:02:51.284Z,1.33
2022-11-07T11:05:24.070Z,2.73
2022-11-07T11:07:52.252Z,1.70
2022-11-07T11:10:27.536Z,2.23
2022-11-07T11:12:56.927Z,1.50
2022-11-07T11:15:28.884Z,1.30
2022-11-07T11:18:02.272Z,8.70
2022-11-07T11:20:35.404Z,3.00
2022-11-07T11:23:05.581Z,1.50
2022-11-07T11:25:44.156Z,1.80
2022-11-07T11:28:19.887Z,1.50
2022-11-07T11:30:48.811Z,1.53
2022-11-07T11:33:19.090Z,1.37
2022-11-07T11:35:49.371Z,2.53
2022-11-07T11:38:19.039Z,1.90
2022-11-07T11:40:50.313Z,2.20
2022-11-07T11:43:21.590Z,1.70
2022-11-07T11:46:03.343Z,2.03
2022-11-07T11:48:34.475Z,2.27
2022-11-07T11:51:04.902Z,3.03
2022-11-07T11:53:32.788Z,2.00
2022-11-07T11:56:11.984Z,1.20
2022-11-07T11:58:44.165Z,1.27
2022-11-07T12:04:29.814Z,1.63
2022-11-07T12:07:02.934Z,3.17
2022-11-07T12:09:36.325Z,1.40
2022-11-07T12:12:17.674Z,1.10
2022-11-07T12:15:04.695Z,1.20
2022-11-07T12:17:38.054Z,1.20
2022-11-07T12:20:16.024Z,2.40
2022-11-07T12:22:51.757Z,2.73
2022-11-07T12:25:25.092Z,1.73
2022-11-07T12:28:01.396Z,1.40
2022-11-07T12:30:38.923Z,1.77
2022-11-07T12:33:16.475Z,1.37
2022-11-07T12:35:46.498Z,1.57
2022-11-07T12:38:29.329Z,1.60
2022-11-07T12:41:04.963Z,2.60
2022-11-07T12:43:45.595Z,2.90
2022-11-07T12:46:21.321Z,1.20
2022-11-07T12:49:04.342Z,2.70
2022-11-07T12:51:43.833Z,1.97
2022-11-07T12:54:30.692Z,1.60
2022-11-07T12:56:58.924Z,4.30
2022-11-07T12:59:28.914Z,2.97
2022-11-07T13:02:17.470Z,2.00
2022-11-07T13:04:52.585Z,1.33
2022-11-07T13:07:25.093Z,1.10
2022-11-07T13:09:58.372Z,0.90
2022-11-07T13:12:33.195Z,1.10
2022-11-07T13:15:01.444Z,1.33
2022-11-07T13:17:40.299Z,1.63
2022-11-07T13:20:26.639Z,1.73
2022-11-07T13:22:55.821Z,1.27
2022-11-07T13:25:26.683Z,3.00
2022-11-07T13:28:03.701Z,1.20
2022-11-07T13:30:36.428Z,3.30
2022-11-07T13:33:06.648Z,1.73
2022-11-07T13:35:35.917Z,1.37
2022-11-07T13:38:08.699Z,1.40
2022-11-07T13:40:38.992Z,2.03
2022-11-07T13:43:13.053Z,1.20
2022-11-07T13:45:43.795Z,2.83
2022-11-07T13:48:19.235Z,5.57
2022-11-07T13:50:51.022Z,1.93
2022-11-07T13:53:22.368Z,5.30
2022-11-07T13:55:57.680Z,3.10
2022-11-07T13:58:26.172Z,2.00
2022-11-07T14:00:54.242Z,1.00
2022-11-07T14:03:29.184Z,3.10
2022-11-07T14:05:57.596Z,1.77
2022-11-07T14:08:29.201Z,1.60
2022-11-07T14:10:57.159Z,6.03
2022-11-07T14:13:28.506Z,1.33
2022-11-07T14:15:58.026Z,2.83
2022-11-07T14:18:30.882Z,2.10
2022-11-07T14:20:59.827Z,1.50
2022-11-07T14:23:30.042Z,1.30
2022-11-07T14:25:59.781Z,2.17
2022-11-07T14:28:34.639Z,1.40
2022-11-07T14:31:04.245Z,1.90
2022-11-07T14:33:33.579Z,1.27
2022-11-07T14:36:05.426Z,1.73
2022-11-07T14:38:33.488Z,1.73
2022-11-07T14:41:02.379Z,2.50
2022-11-07T14:43:30.967Z,3.53
2022-11-07T14:46:18.148Z,2.10
2022-11-07T14:48:49.651Z,1.10
2022-11-07T14:51:20.427Z,1.53
2022-11-07T14:53:53.701Z,1.50
2022-11-07T14:56:25.652Z,1.40
2022-11-07T14:58:53.672Z,2.27
2022-11-07T15:01:28.514Z,1.83
2022-11-07T15:04:01.108Z,1.37
2022-11-07T15:06:34.401Z,1.67
2022-11-07T15:09:04.841Z,1.30
2022-11-07T15:11:34.717Z,1.57
2022-11-07T15:14:04.073Z,1.33
2022-11-07T15:16:36.709Z,1.30
2022-11-07T15:19:08.700Z,1.67
2022-11-07T15:21:39.048Z,4.40
2022-11-07T15:24:30.885Z,2.10
2022-11-07T15:27:03.569Z,3.67
2022-11-07T15:29:33.623Z,6.60
2022-11-07T15:32:07.554Z,3.93
2022-11-07T15:34:58.605Z,4.30
2022-11-07T15:37:26.456Z,3.37
2022-11-07T15:39:54.500Z,2.87
2022-11-07T15:42:22.501Z,2.87
2022-11-07T15:44:50.430Z,2.77
2022-11-07T15:47:19.720Z,3.63
2022-11-07T15:49:49.200Z,4.17
2022-11-07T15:52:17.092Z,8.07
2022-11-07T15:54:45.194Z,2.63
2022-11-07T15:57:14.157Z,3.90
2022-11-07T15:59:42.836Z,2.90
2022-11-07T16:02:14.346Z,2.83
2022-11-07T16:04:43.645Z,3.30
2022-11-07T16:07:15.652Z,5.17
2022-11-07T16:09:43.629Z,4.33
2022-11-07T16:12:13.213Z,3.30
2022-11-07T16:14:44.467Z,5.07
2022-11-07T16:17:13.969Z,8.43
2022-11-07T16:19:41.927Z,5.30
2022-11-07T16:22:11.614Z,6.60
2022-11-07T16:24:40.944Z,4.80
2022-11-07T16:27:09.228Z,4.93
2022-11-07T16:29:37.160Z,9.50
2022-11-07T16:32:05.405Z,6.40
2022-11-07T16:34:33.354Z,8.00
2022-11-07T16:37:01.273Z,7.13
2022-11-07T16:39:29.161Z,13.40
2022-11-07T16:41:58.752Z,7.00
2022-11-07T16:44:26.784Z,7.80
2022-11-07T16:46:56.424Z,8.60
2022-11-07T16:49:28.647Z,7.40
2022-11-07T16:51:56.542Z,20.93
2022-11-07T16:54:24.540Z,10.17
2022-11-07T16:56:52.916Z,15.50
2022-11-07T16:59:24.568Z,12.47
2022-11-07T17:01:53.203Z,11.93
2022-11-07T17:04:21.277Z,18.73
2022-11-07T17:06:49.396Z,15.30
2022-11-07T17:09:20.344Z,11.60
2022-11-07T17:11:49.091Z,8.43
2022-11-07T17:14:17.020Z,8.87
2022-11-07T17:16:48.636Z,10.90
2022-11-07T17:19:16.573Z,8.63
2022-11-07T17:21:48.382Z,13.83
2022-11-07T17:24:16.747Z,7.03
2022-11-07T17:26:44.732Z,8.93
2022-11-07T17:29:14.078Z,7.03
2022-11-07T17:31:42.303Z,11.20
2022-11-07T17:34:11.798Z,8.83
2022-11-07T17:36:45.924Z,7.77
2022-11-07T17:39:16.163Z,6.87
2022-11-07T17:41:45.615Z,8.83
2022-11-07T17:44:13.857Z,10.27
2022-11-07T17:46:43.648Z,22.57
2022-11-07T17:49:15.366Z,41.20
2022-11-07T17:51:43.569Z,13.90
2022-11-07T17:54:12.141Z,7.63
2022-11-07T17:56:40.425Z,17.20
2022-11-07T17:59:11.292Z,18.87
2022-11-07T18:01:40.545Z,17.87
2022-11-07T18:04:10.035Z,16.97
2022-11-07T18:06:41.348Z,14.23
2022-11-07T18:09:11.892Z,12.00
2022-11-07T18:11:39.804Z,14.23
2022-11-07T18:14:07.838Z,17.90
2022-11-07T18:16:37.381Z,16.70
2022-11-07T18:19:06.541Z,20.70
2022-11-07T18:21:34.577Z,15.17
2022-11-07T18:24:03.896Z,16.80
2022-11-07T18:26:33.243Z,13.90
2022-11-07T18:29:02.605Z,13.07
2022-11-07T18:31:30.660Z,12.00
2022-11-07T18:33:59.276Z,11.67
2022-11-07T18:36:28.028Z,23.63
2022-11-07T18:38:55.923Z,22.80
2022-11-07T18:41:25.345Z,21.30
2022-11-07T18:43:54.390Z,26.40
2022-11-07T18:46:22.388Z,14.97
2022-11-07T18:48:50.792Z,13.20
2022-11-07T18:51:21.356Z,9.10
2022-11-07T18:53:49.897Z,8.07
2022-11-07T18:56:18.331Z,8.23
2022-11-07T18:58:47.711Z,9.90
2022-11-07T19:01:17.486Z,7.87
2022-11-07T19:03:46.335Z,12.07
2022-11-07T19:06:16.458Z,7.27
2022-11-07T19:08:47.322Z,9.50
2022-11-07T19:11:19.993Z,11.90
2022-11-07T19:13:49.988Z,11.80
2022-11-07T19:16:19.219Z,14.37
2022-11-07T19:18:49.592Z,17.53
2022-11-07T19:21:19.895Z,10.00
2022-11-07T19:23:48.107Z,12.73
2022-11-07T19:26:16.046Z,11.80
2022-11-07T19:28:44.019Z,9.13
2022-11-07T19:31:13.554Z,12.70
2022-11-07T19:33:41.713Z,8.63
2022-11-07T19:36:13.737Z,18.13
2022-11-07T19:38:41.809Z,16.23
2022-11-07T19:41:10.496Z,18.20
2022-11-07T19:43:39.180Z,17.00
2022-11-07T19:46:07.534Z,10.37
2022-11-07T19:48:36.913Z,13.43
2022-11-07T19:51:08.543Z,13.23
2022-11-07T19:53:36.458Z,13.20
2022-11-07T19:56:08.687Z,10.90
2022-11-07T19:58:37.154Z,10.93
2022-11-07T20:01:13.741Z,10.03
2022-11-07T20:03:45.851Z,17.23
2022-11-07T20:06:14.931Z,17.50
2022-11-07T20:08:46.203Z,16.97
2022-11-07T20:11:15.180Z,18.80
2022-11-07T20:13:43.530Z,15.17
2022-11-07T20:16:11.641Z,15.03
2022-11-07T20:18:40.674Z,18.60
2022-11-07T20:21:13.200Z,17.17
2022-11-07T20:23:41.773Z,15.30
2022-11-07T20:26:11.125Z,25.27
2022-11-07T20:28:39.123Z,17.43
2022-11-07T20:31:10.709Z,15.30
2022-11-07T20:33:38.767Z,13.67
2022-11-07T20:36:10.144Z,11.70
2022-11-07T20:38:38.395Z,17.30
2022-11-07T20:41:06.939Z,11.97
2022-11-07T20:43:35.292Z,17.53
2022-11-07T20:46:07.491Z,14.27
2022-11-07T20:48:36.091Z,15.77
2022-11-07T20:51:13.312Z,10.63
2022-11-07T20:53:46.716Z,7.90
2022-11-07T20:56:17.920Z,6.83
2022-11-07T20:58:46.507Z,8.73
2022-11-07T21:01:16.380Z,11.53
2022-11-07T21:03:45.449Z,11.90
2022-11-07T21:06:14.827Z,13.20
2022-11-07T21:08:45.184Z,14.87
2022-11-07T21:11:13.899Z,12.10
2022-11-07T21:13:45.373Z,14.13
2022-11-07T21:16:16.186Z,12.30
2022-11-07T21:18:44.104Z,12.20
2022-11-07T21:21:16.480Z,13.47
2022-11-07T21:23:44.734Z,16.93
2022-11-07T21:26:15.197Z,16.87
2022-11-07T21:28:43.112Z,21.40
2022-11-07T21:31:13.360Z,14.00
2022-11-07T21:33:42.228Z,15.37
2022-11-07T21:36:11.508Z,14.90
2022-11-07T21:38:40.835Z,19.47
2022-11-07T21:41:09.690Z,17.70
2022-11-07T21:43:38.179Z,14.40
2022-11-07T21:46:10.928Z,9.70
2022-11-07T21:48:39.335Z,12.33
2022-11-07T21:51:08.573Z,9.70
2022-11-07T21:53:37.916Z,9.03
2022-11-07T21:56:08.744Z,9.17
2022-11-07T21:58:36.654Z,8.30
2022-11-07T22:01:05.489Z,8.37
2022-11-07T22:04:03.769Z,8.73
2022-11-07T22:06:22.962Z,10.17
2022-11-07T22:08:52.531Z,7.30
2022-11-07T22:11:21.865Z,7.90
2022-11-07T22:13:49.859Z,6.53
2022-11-07T22:16:19.857Z,7.50
2022-11-07T22:18:48.532Z,6.33
2022-11-07T22:21:17.945Z,10.40
2022-11-07T22:23:45.940Z,16.00
2022-11-07T22:26:15.857Z,9.17
2022-11-07T22:28:46.349Z,9.87
2022-11-07T22:31:15.840Z,10.00
2022-11-07T22:33:43.774Z,6.13
2022-11-07T22:36:12.509Z,11.50
2022-11-07T22:38:41.213Z,7.17
2022-11-07T22:41:11.463Z,6.57
2022-11-07T22:43:39.743Z,6.43
2022-11-07T22:46:11.787Z,6.73
2022-11-07T22:48:40.180Z,6.63
2022-11-07T22:51:09.871Z,6.07
2022-11-07T22:53:38.659Z,7.37
2022-11-07T22:56:10.311Z,5.90
2022-11-07T22:58:38.500Z,13.53
2022-11-07T23:01:07.083Z,9.17
2022-11-07T23:03:36.336Z,10.93
2022-11-07T23:06:05.388Z,7.53
2022-11-07T23:08:34.442Z,6.70
2022-11-07T23:13:51.475Z,14.23
2022-11-07T23:16:20.949Z,11.10
2022-11-07T23:18:50.378Z,8.83
2022-11-07T23:21:19.098Z,6.67
2022-11-07T23:23:47.031Z,7.30
2022-11-07T23:26:16.563Z,7.23
2022-11-07T23:28:45.258Z,5.23
2022-11-07T23:31:14.432Z,5.30
2022-11-07T23:33:44.111Z,5.57
2022-11-07T23:36:14.410Z,5.00
2022-11-07T23:38:42.484Z,5.73
2022-11-07T23:41:12.955Z,4.23
2022-11-07T23:43:41.196Z,4.20
2022-11-07T23:46:28.228Z,5.03
2022-11-07T23:49:24.872Z,4.80
2022-11-07T23:51:54.120Z,4.20
2022-11-07T23:54:39.278Z,5.53
2022-11-07T23:57:07.249Z,6.97
2022-11-07T23:59:53.261Z,4.37
